createdAt,value
2023-05-19T00:00:06.051Z,181.59
2023-05-19T00:01:06.201Z,180.14
2023-05-19T00:02:06.263Z,187.54
2023-05-19T00:03:06.281Z,183.51
2023-05-19T00:04:06.168Z,185.48
2023-05-19T00:05:06.198Z,184.50
2023-05-19T00:06:06.282Z,182.11
2023-05-19T00:07:06.272Z,188.63
2023-05-19T00:08:06.313Z,184.77
2023-05-19T00:09:06.337Z,185.72
2023-05-19T00:10:06.395Z,180.75
2023-05-19T00:11:06.408Z,183.32
2023-05-19T00:12:06.453Z,189.15
2023-05-19T00:13:06.493Z,188.51
2023-05-19T00:14:06.513Z,189.54
2023-05-19T00:15:06.559Z,187.99
2023-05-19T00:16:06.625Z,185.45
2023-05-19T00:17:06.606Z,188.98
2023-05-19T00:18:06.662Z,187.90
2023-05-19T00:19:06.758Z,192.24
2023-05-19T00:20:06.696Z,187.25
2023-05-19T00:21:06.727Z,191.84
2023-05-19T00:22:06.756Z,189.16
2023-05-19T00:23:06.812Z,191.23
2023-05-19T00:24:06.857Z,191.75
2023-05-19T00:25:06.856Z,194.15
2023-05-19T00:26:06.907Z,192.69
2023-05-19T00:27:06.918Z,192.63
2023-05-19T00:28:06.963Z,197.62
2023-05-19T00:29:06.995Z,188.86
2023-05-19T00:30:07.058Z,198.62
2023-05-19T00:31:07.047Z,195.30
2023-05-19T00:32:07.237Z,195.42
2023-05-19T00:33:07.202Z,191.92
2023-05-19T00:34:07.171Z,191.99
2023-05-19T00:35:07.192Z,190.77
2023-05-19T00:36:07.236Z,193.61
2023-05-19T00:37:07.282Z,195.23
2023-05-19T00:38:07.284Z,198.47
2023-05-19T00:39:07.318Z,198.80
2023-05-19T00:40:07.391Z,201.48
2023-05-19T00:41:07.394Z,202.98
2023-05-19T00:42:07.402Z,200.53
2023-05-19T00:43:07.415Z,207.16
2023-05-19T00:44:07.549Z,206.61
2023-05-19T00:45:07.494Z,202.87
2023-05-19T00:46:07.652Z,208.76
2023-05-19T00:47:07.594Z,208.08
2023-05-19T00:48:07.649Z,207.76
2023-05-19T00:49:07.615Z,207.18
2023-05-19T00:50:07.663Z,201.15
2023-05-19T00:51:07.714Z,205.00
2023-05-19T00:52:07.736Z,212.37
2023-05-19T00:53:07.762Z,210.33
2023-05-19T00:54:07.803Z,208.93
2023-05-19T00:55:07.843Z,207.88
2023-05-19T00:56:07.892Z,215.51
2023-05-19T00:57:07.892Z,207.14
2023-05-19T00:58:07.954Z,217.05
2023-05-19T00:59:07.978Z,206.48
2023-05-19T01:00:08.002Z,217.43
2023-05-19T01:01:08.107Z,211.79
2023-05-19T01:02:08.143Z,220.85
2023-05-19T01:03:08.212Z,216.08
2023-05-19T01:04:08.293Z,212.30
2023-05-19T01:05:08.204Z,216.69
2023-05-19T01:06:08.339Z,214.62
2023-05-19T01:07:08.276Z,215.41
2023-05-19T01:08:08.306Z,209.37
2023-05-19T01:09:08.326Z,218.59
2023-05-19T01:10:08.367Z,215.22
2023-05-19T01:11:08.486Z,216.20
2023-05-19T01:12:08.443Z,209.08
2023-05-19T01:13:08.462Z,215.92
2023-05-19T01:14:08.510Z,211.43
2023-05-19T01:15:08.573Z,218.14
2023-05-19T01:16:08.605Z,218.94
2023-05-19T01:17:08.612Z,219.93
2023-05-19T01:18:08.694Z,224.10
2023-05-19T01:19:08.727Z,222.30
2023-05-19T01:20:08.690Z,216.49
2023-05-19T01:21:08.776Z,224.07
2023-05-19T01:22:08.780Z,219.87
2023-05-19T01:23:08.821Z,221.08
2023-05-19T01:24:08.838Z,224.68
2023-05-19T01:25:08.871Z,229.89
2023-05-19T01:26:08.926Z,225.29
2023-05-19T01:27:08.964Z,226.30
2023-05-19T01:28:08.989Z,221.25
2023-05-19T01:29:09.028Z,234.36
2023-05-19T01:30:09.051Z,229.74
2023-05-19T01:31:09.082Z,231.20
2023-05-19T01:32:09.233Z,229.06
2023-05-19T01:33:09.345Z,237.07
2023-05-19T01:34:09.195Z,235.27
2023-05-19T01:35:09.248Z,235.84
2023-05-19T01:36:09.282Z,233.36
2023-05-19T01:37:09.295Z,239.29
2023-05-19T01:38:09.339Z,242.47
2023-05-19T01:39:09.339Z,242.86
2023-05-19T01:40:09.392Z,246.45
2023-05-19T01:41:09.397Z,239.08
2023-05-19T01:42:09.439Z,241.43
2023-05-19T01:43:09.473Z,245.56
2023-05-19T01:44:09.494Z,242.89
2023-05-19T01:45:09.516Z,238.95
2023-05-19T01:46:09.607Z,243.96
2023-05-19T01:47:09.562Z,247.02
2023-05-19T01:48:11.298Z,242.42
2023-05-19T01:49:09.624Z,243.15
2023-05-19T01:50:09.650Z,244.12
2023-05-19T01:51:09.683Z,240.51
2023-05-19T01:52:09.694Z,237.84
2023-05-19T01:53:09.739Z,240.13
2023-05-19T01:54:09.771Z,241.66
2023-05-19T01:55:09.792Z,245.50
2023-05-19T01:56:09.861Z,242.56
2023-05-19T01:57:09.948Z,243.44
2023-05-19T01:58:09.890Z,237.45
2023-05-19T01:59:09.907Z,241.34
2023-05-19T02:00:09.992Z,242.94
2023-05-19T02:01:10.024Z,231.09
2023-05-19T02:02:10.000Z,238.79
2023-05-19T02:03:10.025Z,235.75
2023-05-19T02:04:10.100Z,241.26
2023-05-19T02:05:10.133Z,237.23
2023-05-19T02:06:10.147Z,245.03
2023-05-19T02:07:10.156Z,240.09
2023-05-19T02:08:10.220Z,237.62
2023-05-19T02:09:10.224Z,241.82
2023-05-19T02:10:10.273Z,235.26
2023-05-19T02:11:10.299Z,237.62
2023-05-19T02:12:10.328Z,239.34
2023-05-19T02:13:10.374Z,237.78
2023-05-19T02:14:10.402Z,238.88
2023-05-19T02:15:10.419Z,244.70
2023-05-19T02:16:10.486Z,246.17
2023-05-19T02:17:10.482Z,245.97
2023-05-19T02:18:10.545Z,245.44
2023-05-19T02:19:10.598Z,239.20
2023-05-19T02:20:10.619Z,239.78
2023-05-19T02:21:10.631Z,242.43
2023-05-19T02:22:10.629Z,244.86
2023-05-19T02:23:10.721Z,241.42
2023-05-19T02:24:10.694Z,246.71
2023-05-19T02:25:10.776Z,244.02
2023-05-19T02:26:10.820Z,242.44
2023-05-19T02:27:10.815Z,242.15
2023-05-19T02:28:10.945Z,244.17
2023-05-19T02:29:10.880Z,243.61
2023-05-19T02:30:10.906Z,244.68
2023-05-19T02:31:10.959Z,250.00
2023-05-19T02:32:11.125Z,244.46
2023-05-19T02:33:11.053Z,242.11
2023-05-19T02:34:11.042Z,243.89
2023-05-19T02:35:11.085Z,248.34
2023-05-19T02:36:11.111Z,250.00
2023-05-19T02:37:11.147Z,238.59
2023-05-19T02:38:11.190Z,244.27
2023-05-19T02:39:11.246Z,246.07
2023-05-19T02:40:11.246Z,245.99
2023-05-19T02:41:11.283Z,238.39
2023-05-19T02:42:11.330Z,244.24
2023-05-19T02:43:11.368Z,238.48
2023-05-19T02:44:11.382Z,248.42
2023-05-19T02:45:11.437Z,246.61
2023-05-19T02:46:11.481Z,245.48
2023-05-19T02:47:11.501Z,241.59
2023-05-19T02:48:11.537Z,243.98
2023-05-19T02:49:11.568Z,238.43
2023-05-19T02:50:11.628Z,246.30
2023-05-19T02:51:11.622Z,242.01
2023-05-19T02:52:11.657Z,250.19
2023-05-19T02:53:11.712Z,245.05
2023-05-19T02:54:11.731Z,243.05
2023-05-19T02:55:11.808Z,247.82
2023-05-19T02:56:11.872Z,250.59
2023-05-19T02:57:11.839Z,248.83
2023-05-19T02:58:11.862Z,247.11
2023-05-19T02:59:11.911Z,242.46
2023-05-19T03:00:11.951Z,248.69
2023-05-19T03:01:11.972Z,239.28
2023-05-19T03:02:12.077Z,245.22
2023-05-19T03:03:12.148Z,241.27
2023-05-19T03:04:12.074Z,244.87
2023-05-19T03:05:12.126Z,244.16
2023-05-19T03:06:12.145Z,246.33
2023-05-19T03:07:12.190Z,249.06
2023-05-19T03:08:12.229Z,240.64
2023-05-19T03:09:12.252Z,249.00
2023-05-19T03:10:12.286Z,246.21
2023-05-19T03:11:12.311Z,246.08
2023-05-19T03:12:12.355Z,246.78
2023-05-19T03:13:12.407Z,248.05
2023-05-19T03:14:12.464Z,245.04
2023-05-19T03:15:12.438Z,241.68
2023-05-19T03:16:12.539Z,243.72
2023-05-19T03:17:12.565Z,248.11
2023-05-19T03:18:12.675Z,236.53
2023-05-19T03:19:12.678Z,240.80
2023-05-19T03:20:12.643Z,246.38
2023-05-19T03:21:12.684Z,241.52
2023-05-19T03:22:12.741Z,245.39
2023-05-19T03:23:12.768Z,245.52
2023-05-19T03:24:12.810Z,244.08
2023-05-19T03:25:12.827Z,249.47
2023-05-19T03:26:12.877Z,245.77
2023-05-19T03:27:12.910Z,242.44
2023-05-19T03:28:12.954Z,244.07
2023-05-19T03:29:12.969Z,249.42
2023-05-19T03:30:13.014Z,248.36
2023-05-19T03:31:13.075Z,245.62
2023-05-19T03:32:13.309Z,248.20
2023-05-19T03:33:13.248Z,243.37
2023-05-19T03:34:13.165Z,249.10
2023-05-19T03:35:13.202Z,245.70
2023-05-19T03:36:13.236Z,246.52
2023-05-19T03:37:13.289Z,243.38
2023-05-19T03:38:13.340Z,245.62
2023-05-19T03:39:13.392Z,244.37
2023-05-19T03:40:13.407Z,244.09
2023-05-19T03:41:13.452Z,243.76
2023-05-19T03:42:13.476Z,246.24
2023-05-19T03:43:13.518Z,242.17
2023-05-19T03:44:13.559Z,239.03
2023-05-19T03:45:13.584Z,239.90
2023-05-19T03:46:13.671Z,242.11
2023-05-19T03:47:13.659Z,240.58
2023-05-19T03:48:13.810Z,245.99
2023-05-19T03:49:13.740Z,244.64
2023-05-19T03:50:13.784Z,246.95
2023-05-19T03:51:13.808Z,245.65
2023-05-19T03:52:13.838Z,245.04
2023-05-19T03:53:13.866Z,249.01
2023-05-19T03:54:13.915Z,249.22
2023-05-19T03:55:13.937Z,245.38
2023-05-19T03:56:14.095Z,242.01
2023-05-19T03:57:14.026Z,243.19
2023-05-19T03:58:14.052Z,241.50
2023-05-19T03:59:14.090Z,245.85
2023-05-19T04:00:14.103Z,241.87
2023-05-19T04:01:14.171Z,242.56
2023-05-19T04:02:14.206Z,250.00
2023-05-19T04:03:14.342Z,242.63
2023-05-19T04:04:14.291Z,245.06
2023-05-19T04:05:14.291Z,245.86
2023-05-19T04:06:14.321Z,242.13
2023-05-19T04:07:14.365Z,237.00
2023-05-19T04:08:14.405Z,240.79
2023-05-19T04:09:14.451Z,241.26
2023-05-19T04:10:14.481Z,245.64
2023-05-19T04:11:14.512Z,245.03
2023-05-19T04:12:14.525Z,247.01
2023-05-19T04:13:14.585Z,239.31
2023-05-19T04:14:14.614Z,239.75
2023-05-19T04:15:14.623Z,239.93
2023-05-19T04:16:14.724Z,242.84
2023-05-19T04:17:14.725Z,244.36
2023-05-19T04:18:14.771Z,244.84
2023-05-19T04:19:14.805Z,245.30
2023-05-19T04:20:14.776Z,243.76
2023-05-19T04:21:14.832Z,241.34
2023-05-19T04:22:14.854Z,239.66
2023-05-19T04:23:14.896Z,238.96
2023-05-19T04:24:14.910Z,241.64
2023-05-19T04:25:14.933Z,241.16
2023-05-19T04:26:15.003Z,239.74
2023-05-19T04:27:15.011Z,245.14
2023-05-19T04:28:15.030Z,244.04
2023-05-19T04:29:15.092Z,239.34
2023-05-19T04:30:16.697Z,243.12
2023-05-19T04:31:15.191Z,242.23
2023-05-19T04:32:15.103Z,242.45
2023-05-19T04:33:15.087Z,238.84
2023-05-19T04:34:15.104Z,235.20
2023-05-19T04:35:15.067Z,234.09
2023-05-19T04:36:15.064Z,231.32
2023-05-19T04:37:15.050Z,231.99
2023-05-19T04:38:15.042Z,239.00
2023-05-19T04:39:15.051Z,238.63
2023-05-19T04:40:15.033Z,233.74
2023-05-19T04:41:15.050Z,236.23
2023-05-19T04:42:15.009Z,233.17
2023-05-19T04:43:15.018Z,238.00
2023-05-19T04:44:14.996Z,238.27
2023-05-19T04:45:15.011Z,242.63
2023-05-19T04:46:15.035Z,235.45
2023-05-19T04:47:14.991Z,235.76
2023-05-19T04:48:14.995Z,228.68
2023-05-19T04:49:14.970Z,234.04
2023-05-19T04:50:14.964Z,230.86
2023-05-19T04:51:14.983Z,236.86
2023-05-19T04:52:14.946Z,231.53
2023-05-19T04:53:14.947Z,229.38
2023-05-19T04:54:14.945Z,226.61
2023-05-19T04:55:14.933Z,229.48
2023-05-19T04:56:14.956Z,230.81
2023-05-19T04:57:14.926Z,231.19
2023-05-19T04:58:14.909Z,232.32
2023-05-19T04:59:14.902Z,230.84
2023-05-19T05:00:14.961Z,233.48
2023-05-19T05:01:14.915Z,231.26
2023-05-19T05:02:15.005Z,225.12
2023-05-19T05:03:15.099Z,224.13
2023-05-19T05:04:14.956Z,223.50
2023-05-19T05:05:14.875Z,222.51
2023-05-19T05:06:14.865Z,215.99
2023-05-19T05:07:14.865Z,217.13
2023-05-19T05:08:14.881Z,221.05
2023-05-19T05:09:14.833Z,217.49
2023-05-19T05:10:14.850Z,215.42
2023-05-19T05:11:14.841Z,214.10
2023-05-19T05:12:14.832Z,212.33
2023-05-19T05:13:14.910Z,212.51
2023-05-19T05:14:14.828Z,216.73
2023-05-19T05:15:14.813Z,212.61
2023-05-19T05:16:14.853Z,205.72
2023-05-19T05:17:14.804Z,210.81
2023-05-19T05:18:14.785Z,207.67
2023-05-19T05:19:14.836Z,204.27
2023-05-19T05:20:14.782Z,206.78
2023-05-19T05:21:14.793Z,202.64
2023-05-19T05:22:14.781Z,202.94
2023-05-19T05:23:14.807Z,203.22
2023-05-19T05:24:14.759Z,199.14
2023-05-19T05:25:14.743Z,193.67
2023-05-19T05:26:14.736Z,196.74
2023-05-19T05:27:14.744Z,197.70
2023-05-19T05:28:14.712Z,194.69
2023-05-19T05:29:14.710Z,193.86
2023-05-19T05:30:14.712Z,196.54
2023-05-19T05:31:14.775Z,192.07
2023-05-19T05:32:14.709Z,188.32
2023-05-19T05:33:14.863Z,189.86
2023-05-19T05:34:14.684Z,186.55
2023-05-19T05:35:14.693Z,189.31
2023-05-19T05:36:14.732Z,188.92
2023-05-19T05:37:15.382Z,188.24
2023-05-19T05:38:14.660Z,194.90
2023-05-19T05:39:14.660Z,192.30
2023-05-19T05:40:14.644Z,195.14
2023-05-19T05:41:14.650Z,192.93
2023-05-19T05:42:14.630Z,195.69
2023-05-19T05:43:14.635Z,199.06
2023-05-19T05:44:14.606Z,197.30
2023-05-19T05:45:14.615Z,195.53
2023-05-19T05:46:14.625Z,190.76
2023-05-19T05:47:14.597Z,193.08
2023-05-19T05:48:14.631Z,195.82
2023-05-19T05:49:14.595Z,196.13
2023-05-19T05:50:14.573Z,197.59
2023-05-19T05:51:14.556Z,196.14
2023-05-19T05:52:14.560Z,199.64
2023-05-19T05:53:14.570Z,201.80
2023-05-19T05:54:14.571Z,203.97
2023-05-19T05:55:14.588Z,203.54
2023-05-19T05:56:14.621Z,201.73
2023-05-19T05:57:14.585Z,203.36
2023-05-19T05:58:14.567Z,204.86
2023-05-19T05:59:14.600Z,207.35
2023-05-19T06:00:14.610Z,207.36
2023-05-19T06:01:14.590Z,202.97
2023-05-19T06:02:14.646Z,210.44
2023-05-19T06:03:14.701Z,206.92
2023-05-19T06:04:14.617Z,205.77
2023-05-19T06:05:14.661Z,202.89
2023-05-19T06:06:14.636Z,206.60
2023-05-19T06:07:14.626Z,210.09
2023-05-19T06:08:14.639Z,207.27
2023-05-19T06:09:14.615Z,206.49
2023-05-19T06:10:14.636Z,210.98
2023-05-19T06:11:14.638Z,210.81
2023-05-19T06:12:14.648Z,209.70
2023-05-19T06:13:14.646Z,209.76
2023-05-19T06:14:14.660Z,210.09
2023-05-19T06:15:14.668Z,213.05
2023-05-19T06:16:14.681Z,209.96
2023-05-19T06:17:14.648Z,213.49
2023-05-19T06:18:14.809Z,215.57
2023-05-19T06:19:14.670Z,217.56
2023-05-19T06:20:14.635Z,212.30
2023-05-19T06:21:14.627Z,216.75
2023-05-19T06:22:14.623Z,214.33
2023-05-19T06:23:14.662Z,212.75
2023-05-19T06:24:14.628Z,214.38
2023-05-19T06:25:14.624Z,209.85
2023-05-19T06:26:14.625Z,211.19
2023-05-19T06:27:14.618Z,213.24
2023-05-19T06:28:14.631Z,216.10
2023-05-19T06:29:14.622Z,214.33
2023-05-19T06:30:14.654Z,217.10
2023-05-19T06:31:14.633Z,221.19
2023-05-19T06:32:14.638Z,219.20
2023-05-19T06:33:14.623Z,219.17
2023-05-19T06:34:14.617Z,218.13
2023-05-19T06:35:14.598Z,217.84
2023-05-19T06:36:14.651Z,212.22
2023-05-19T06:37:14.636Z,210.35
2023-05-19T06:38:14.641Z,208.18
2023-05-19T06:39:14.633Z,214.53
2023-05-19T06:40:14.654Z,212.07
2023-05-19T06:41:14.640Z,211.94
2023-05-19T06:42:14.638Z,209.50
2023-05-19T06:43:14.645Z,210.87
2023-05-19T06:44:14.617Z,204.63
2023-05-19T06:45:14.616Z,201.63
2023-05-19T06:46:14.657Z,210.06
2023-05-19T06:47:14.679Z,207.52
2023-05-19T06:48:14.697Z,204.50
2023-05-19T06:49:14.618Z,203.74
2023-05-19T06:50:14.621Z,209.61
2023-05-19T06:51:14.642Z,208.20
2023-05-19T06:52:14.634Z,216.34
2023-05-19T06:53:14.628Z,214.33
2023-05-19T06:54:14.661Z,214.70
2023-05-19T06:55:14.664Z,213.96
2023-05-19T06:56:14.675Z,215.22
2023-05-19T06:57:14.710Z,226.48
2023-05-19T06:58:14.735Z,223.34
2023-05-19T06:59:14.767Z,222.64
2023-05-19T07:00:17.821Z,223.94
2023-05-19T07:01:14.840Z,237.59
2023-05-19T07:02:14.953Z,231.91
2023-05-19T07:03:14.872Z,232.59
2023-05-19T07:04:14.813Z,237.97
2023-05-19T07:05:14.776Z,236.41
2023-05-19T07:06:14.748Z,229.80
2023-05-19T07:07:14.742Z,227.95
2023-05-19T07:08:14.726Z,222.69
2023-05-19T07:09:14.777Z,223.01
2023-05-19T07:10:14.756Z,227.16
2023-05-19T07:11:14.725Z,223.04
2023-05-19T07:12:14.718Z,216.29
2023-05-19T07:13:14.716Z,220.54
2023-05-19T07:14:14.704Z,223.69
2023-05-19T07:15:14.689Z,226.10
2023-05-19T07:16:14.818Z,221.49
2023-05-19T07:17:14.670Z,218.05
2023-05-19T07:18:14.675Z,210.96
2023-05-19T07:19:14.706Z,211.51
2023-05-19T07:20:14.658Z,209.32
2023-05-19T07:21:14.664Z,201.06
2023-05-19T07:22:14.642Z,202.80
2023-05-19T07:23:16.710Z,210.91
2023-05-19T07:24:14.627Z,194.87
2023-05-19T07:25:14.614Z,200.06
2023-05-19T07:26:14.621Z,205.04
2023-05-19T07:27:14.624Z,223.63
2023-05-19T07:28:14.613Z,221.76
2023-05-19T07:29:14.606Z,228.05
2023-05-19T07:30:14.582Z,217.99
2023-05-19T07:31:14.595Z,201.82
2023-05-19T07:32:14.662Z,210.28
2023-05-19T07:33:14.605Z,219.23
2023-05-19T07:34:14.578Z,228.11
2023-05-19T07:35:14.571Z,223.13
2023-05-19T07:36:14.541Z,220.16
2023-05-19T07:37:14.543Z,208.13
2023-05-19T07:38:14.610Z,197.89
2023-05-19T07:39:14.559Z,191.64
2023-05-19T07:40:14.560Z,202.35
2023-05-19T07:41:14.548Z,213.07
2023-05-19T07:42:14.515Z,220.70
2023-05-19T07:43:14.525Z,225.57
2023-05-19T07:44:14.523Z,235.65
2023-05-19T07:45:14.498Z,232.92
2023-05-19T07:46:14.624Z,229.75
2023-05-19T07:47:14.481Z,221.16
2023-05-19T07:48:14.545Z,223.95
2023-05-19T07:49:14.457Z,228.23
2023-05-19T07:50:14.456Z,227.49
2023-05-19T07:51:14.470Z,220.16
2023-05-19T07:52:14.457Z,225.89
2023-05-19T07:53:14.578Z,229.45
2023-05-19T07:54:14.425Z,236.34
2023-05-19T07:55:14.411Z,236.93
2023-05-19T07:56:14.443Z,236.75
2023-05-19T07:57:14.399Z,232.96
2023-05-19T07:58:14.391Z,241.81
2023-05-19T07:59:14.400Z,238.55
2023-05-19T08:00:14.387Z,242.37
2023-05-19T08:01:14.394Z,249.61
2023-05-19T08:02:14.488Z,248.97
2023-05-19T08:03:14.478Z,246.65
2023-05-19T08:04:14.648Z,249.82
2023-05-19T08:05:14.492Z,250.00
2023-05-19T08:06:14.511Z,243.79
2023-05-19T08:07:14.547Z,247.51
2023-05-19T08:08:14.610Z,246.11
2023-05-19T08:09:14.626Z,249.26
2023-05-19T08:10:14.652Z,249.92
2023-05-19T08:11:14.706Z,249.38
2023-05-19T08:12:14.736Z,247.29
2023-05-19T08:13:14.771Z,248.36
2023-05-19T08:14:14.811Z,245.85
2023-05-19T08:15:14.830Z,247.19
2023-05-19T08:16:14.882Z,249.87
2023-05-19T08:17:14.906Z,250.00
2023-05-19T08:18:14.938Z,249.19
2023-05-19T08:19:14.993Z,247.10
2023-05-19T08:20:14.990Z,246.97
2023-05-19T08:21:15.020Z,248.94
2023-05-19T08:22:15.031Z,244.49
2023-05-19T08:23:15.097Z,244.31
2023-05-19T08:24:15.118Z,244.72
2023-05-19T08:25:15.117Z,246.80
2023-05-19T08:26:15.133Z,250.00
2023-05-19T08:27:15.177Z,250.00
2023-05-19T08:28:15.216Z,249.79
2023-05-19T08:29:15.262Z,248.24
2023-05-19T08:30:15.292Z,242.73
2023-05-19T08:31:15.368Z,250.00
2023-05-19T08:32:15.374Z,246.67
2023-05-19T08:33:15.396Z,242.94
2023-05-19T08:34:15.458Z,246.86
2023-05-19T08:35:15.508Z,241.27
2023-05-19T08:36:15.618Z,230.77
2023-05-19T08:37:15.598Z,226.74
2023-05-19T08:38:15.662Z,217.33
2023-05-19T08:39:15.670Z,214.96
2023-05-19T08:40:15.713Z,215.31
2023-05-19T08:41:15.807Z,209.33
2023-05-19T08:42:15.817Z,205.93
2023-05-19T08:43:15.853Z,199.48
2023-05-19T08:44:18.834Z,204.61
2023-05-19T08:45:15.897Z,201.15
2023-05-19T08:46:15.902Z,199.34
2023-05-19T08:47:15.890Z,195.93
2023-05-19T08:48:15.952Z,196.87
2023-05-19T08:49:15.869Z,196.72
2023-05-19T08:50:15.856Z,193.51
2023-05-19T08:51:15.883Z,195.23
2023-05-19T08:52:15.864Z,193.39
2023-05-19T08:53:31.782Z,192.83
2023-05-19T08:54:16.865Z,193.03
2023-05-19T08:55:15.825Z,193.19
2023-05-19T08:56:15.829Z,193.02
2023-05-19T08:57:15.818Z,191.83
2023-05-19T08:58:15.803Z,193.93
2023-05-19T08:59:15.816Z,191.73
2023-05-19T09:00:15.813Z,191.13
2023-05-19T09:01:15.847Z,186.86
2023-05-19T09:02:15.809Z,190.62
2023-05-19T09:04:15.981Z,188.42
2023-05-19T09:05:15.920Z,182.98
2023-05-19T09:06:15.937Z,185.72
2023-05-19T09:07:15.984Z,179.77
2023-05-19T09:08:16.024Z,178.61
2023-05-19T09:09:16.052Z,176.76
2023-05-19T09:10:16.086Z,183.75
2023-05-19T09:11:16.123Z,182.18
2023-05-19T09:12:16.222Z,180.62
2023-05-19T09:13:16.200Z,178.51
2023-05-19T09:14:16.223Z,184.85
2023-05-19T09:15:16.249Z,186.69
2023-05-19T09:16:16.314Z,189.20
2023-05-19T09:17:16.341Z,186.41
2023-05-19T09:18:16.375Z,190.80
2023-05-19T09:19:16.448Z,193.01
2023-05-19T09:20:16.444Z,191.50
2023-05-19T09:21:16.467Z,194.74
2023-05-19T09:22:16.499Z,195.58
2023-05-19T09:23:16.814Z,195.55
2023-05-19T09:24:16.540Z,197.29
2023-05-19T09:25:16.552Z,199.05
2023-05-19T09:26:16.591Z,202.72
2023-05-19T09:27:16.606Z,204.08
2023-05-19T09:28:16.632Z,203.24
2023-05-19T09:29:16.668Z,204.47
2023-05-19T09:30:16.683Z,203.29
2023-05-19T09:31:16.694Z,203.37
2023-05-19T09:32:16.785Z,200.95
2023-05-19T09:33:16.780Z,201.39
2023-05-19T09:34:16.747Z,201.86
2023-05-19T09:35:16.803Z,199.05
2023-05-19T09:36:16.806Z,203.52
2023-05-19T09:37:16.831Z,203.67
2023-05-19T09:38:16.865Z,205.36
2023-05-19T09:39:16.882Z,204.71
2023-05-19T09:40:16.974Z,200.12
2023-05-19T09:41:16.942Z,203.03
2023-05-19T09:42:16.953Z,200.79
2023-05-19T09:43:16.971Z,200.31
2023-05-19T09:44:16.982Z,201.74
2023-05-19T09:45:17.005Z,197.43
2023-05-19T09:46:17.045Z,202.45
2023-05-19T09:47:17.054Z,203.24
2023-05-19T09:48:17.078Z,205.10
2023-05-19T09:49:17.108Z,200.21
2023-05-19T09:50:17.164Z,202.90
2023-05-19T09:51:17.165Z,207.74
2023-05-19T09:52:17.205Z,211.80
2023-05-19T09:53:17.212Z,218.73
2023-05-19T09:54:17.268Z,230.65
2023-05-19T09:55:17.254Z,237.84
2023-05-19T09:56:17.276Z,239.20
2023-05-19T09:57:17.310Z,235.15
2023-05-19T09:58:17.334Z,239.24
2023-05-19T09:59:17.357Z,244.42
2023-05-19T10:00:17.425Z,246.37
2023-05-19T10:01:17.474Z,246.50
2023-05-19T10:02:17.463Z,245.40
2023-05-19T10:03:17.464Z,241.19
2023-05-19T10:04:17.516Z,237.45
2023-05-19T10:05:17.965Z,236.48
2023-05-19T10:06:17.576Z,228.71
2023-05-19T10:07:17.611Z,220.97
2023-05-19T10:08:17.639Z,218.86
2023-05-19T10:09:17.655Z,206.88
2023-05-19T10:10:17.721Z,202.70
2023-05-19T10:11:17.729Z,197.55
2023-05-19T10:12:17.766Z,195.25
2023-05-19T10:13:17.811Z,190.72
2023-05-19T10:14:17.833Z,192.32
2023-05-19T10:15:17.864Z,186.51
2023-05-19T10:16:17.976Z,188.02
2023-05-19T10:17:17.932Z,184.27
2023-05-19T10:18:17.936Z,182.97
2023-05-19T10:19:18.006Z,183.92
2023-05-19T10:20:18.023Z,180.05
2023-05-19T10:21:18.046Z,179.00
2023-05-19T10:22:18.058Z,173.92
2023-05-19T10:23:18.105Z,174.07
2023-05-19T10:24:18.118Z,175.86
2023-05-19T10:25:18.158Z,173.22
2023-05-19T10:26:18.210Z,173.91
2023-05-19T10:27:18.235Z,169.65
2023-05-19T10:28:18.265Z,169.68
2023-05-19T10:29:18.317Z,165.56
2023-05-19T10:30:18.387Z,167.34
2023-05-19T10:31:18.379Z,167.76
2023-05-19T10:32:18.491Z,164.17
2023-05-19T10:33:18.536Z,163.50
2023-05-19T10:34:18.499Z,161.16
2023-05-19T10:35:18.533Z,161.10
2023-05-19T10:36:18.576Z,161.92
2023-05-19T10:37:18.616Z,159.73
2023-05-19T10:38:18.622Z,159.62
2023-05-19T10:39:18.662Z,158.82
2023-05-19T10:40:18.692Z,153.93
2023-05-19T10:41:18.734Z,153.61
2023-05-19T10:42:18.767Z,152.61
2023-05-19T10:43:18.804Z,149.95
2023-05-19T10:44:18.859Z,150.67
2023-05-19T10:45:18.859Z,150.05
2023-05-19T10:46:18.930Z,151.68
2023-05-19T10:47:18.944Z,149.71
2023-05-19T10:48:18.919Z,150.79
2023-05-19T10:49:18.951Z,153.08
2023-05-19T10:50:19.010Z,151.39
2023-05-19T10:51:19.042Z,153.61
2023-05-19T10:52:19.047Z,155.90
2023-05-19T10:53:19.071Z,157.70
2023-05-19T10:54:19.064Z,158.77
2023-05-19T10:55:19.096Z,154.12
2023-05-19T10:56:19.120Z,155.74
2023-05-19T10:57:19.142Z,153.99
2023-05-19T10:58:19.194Z,154.00
2023-05-19T10:59:19.184Z,156.07
2023-05-19T11:00:19.208Z,157.13
2023-05-19T11:01:19.390Z,160.19
2023-05-19T11:02:19.357Z,159.08
2023-05-19T11:03:19.266Z,155.47
2023-05-19T11:04:19.359Z,154.69
2023-05-19T11:05:19.331Z,154.72
2023-05-19T11:06:19.371Z,153.30
2023-05-19T11:07:19.373Z,151.03
2023-05-19T11:08:19.398Z,155.06
2023-05-19T11:09:22.477Z,153.60
2023-05-19T11:10:21.584Z,153.62
2023-05-19T11:11:19.406Z,150.41
2023-05-19T11:12:19.407Z,154.04
2023-05-19T11:13:19.397Z,151.70
2023-05-19T11:14:19.393Z,151.87
2023-05-19T11:15:19.373Z,152.81
2023-05-19T11:16:19.499Z,151.81
2023-05-19T11:17:19.370Z,157.56
2023-05-19T11:18:19.367Z,162.03
2023-05-19T11:19:19.381Z,163.34
2023-05-19T11:20:19.372Z,175.48
2023-05-19T11:21:19.424Z,180.40
2023-05-19T11:22:19.423Z,191.85
2023-05-19T11:23:19.490Z,198.93
2023-05-19T11:24:19.488Z,188.50
2023-05-19T11:25:19.492Z,202.95
2023-05-19T11:26:19.526Z,201.74
2023-05-19T11:27:19.563Z,200.50
2023-05-19T11:28:20.045Z,202.63
2023-05-19T11:29:19.597Z,203.16
2023-05-19T11:30:19.649Z,192.67
2023-05-19T11:31:19.658Z,199.17
2023-05-19T11:32:19.818Z,198.49
2023-05-19T11:33:19.965Z,187.11
2023-05-19T11:34:19.753Z,178.15
2023-05-19T11:35:19.760Z,170.17
2023-05-19T11:36:19.819Z,169.36
2023-05-19T11:37:19.840Z,164.96
2023-05-19T11:38:19.878Z,164.86
2023-05-19T11:39:19.908Z,155.33
2023-05-19T11:40:19.958Z,156.79
2023-05-19T11:41:20.873Z,155.56
2023-05-19T11:42:20.012Z,149.85
2023-05-19T11:43:20.010Z,148.36
2023-05-19T11:44:20.046Z,143.09
2023-05-19T11:45:20.077Z,143.87
2023-05-19T11:46:20.180Z,146.81
2023-05-19T11:47:20.197Z,140.64
2023-05-19T11:48:20.284Z,142.01
2023-05-19T11:49:20.220Z,137.07
2023-05-19T11:50:20.324Z,145.16
2023-05-19T11:51:20.279Z,142.68
2023-05-19T11:52:20.304Z,142.05
2023-05-19T11:53:20.356Z,142.49
2023-05-19T11:54:20.392Z,138.33
2023-05-19T11:55:20.435Z,140.16
2023-05-19T11:56:20.483Z,139.48
2023-05-19T11:57:20.523Z,140.48
2023-05-19T11:58:20.555Z,131.75
2023-05-19T11:59:20.610Z,131.84
2023-05-19T12:00:20.652Z,128.87
2023-05-19T12:01:20.679Z,129.01
2023-05-19T12:02:20.787Z,127.59
2023-05-19T12:03:20.885Z,123.91
2023-05-19T12:04:20.750Z,122.92
2023-05-19T12:05:20.885Z,120.42
2023-05-19T12:06:20.840Z,114.17
2023-05-19T12:07:20.840Z,119.94
2023-05-19T12:08:20.862Z,118.70
2023-05-19T12:09:20.897Z,119.53
2023-05-19T12:10:20.938Z,118.54
2023-05-19T12:11:20.962Z,118.32
2023-05-19T12:12:20.991Z,120.81
2023-05-19T12:13:21.034Z,130.99
2023-05-19T12:14:21.032Z,122.66
2023-05-19T12:15:21.050Z,125.84
2023-05-19T12:16:21.144Z,123.81
2023-05-19T12:17:21.144Z,132.80
2023-05-19T12:18:21.142Z,138.17
2023-05-19T12:19:21.224Z,132.60
2023-05-19T12:20:21.178Z,135.53
2023-05-19T12:21:21.175Z,141.08
2023-05-19T12:22:21.220Z,140.41
2023-05-19T12:23:21.235Z,142.84
2023-05-19T12:24:21.249Z,146.42
2023-05-19T12:25:21.291Z,148.62
2023-05-19T12:26:21.293Z,149.18
2023-05-19T12:27:21.315Z,152.08
2023-05-19T12:28:21.316Z,154.00
2023-05-19T12:29:21.366Z,149.65